»·PEaware :: N822JH KSBP-KSMX

N822JH :: KSBP-KSMX

FLIGHT INFORMATION

Flight Status: Arrived
Operator: Privately registered:
United States
More flights under this callsign
Pilot: Aleksandr Z. (18023)
Aircraft: PIPER PA-24 COMMANCHE
(PA24)
More flights by this aircraft type
Origin: KSBP San Luis Co Regl
United States
Destination: KSMX Santa Maria Pub/Capt Hancock
United States
More flights between these airports :: More routes between these airports
Route: +
File this flight plan on PilotEdge
Remarks:
Altitude:
(Current/Filed)
3,500ft
Speed:
(Current/Filed)
130kts
Departed: 11-Feb-19 08:56 AM
Arrived: 11-Feb-19 09:16 AM
Distance/Time
Traveled:
23nm/0:20
Distance/Time
To Go:
Arrived

Flight Plot

Page will automatically refresh every two minutes.


Map Options




Map Legend


Flown Route
Filed Route
Departure Airport
Arrival Airport
Navaid (VOR, NDB)
Fix

Horizontal Profiles

Position Reports

Time Latitude Longitude Heading Altitude Ground
Speed
11-Feb-19 08:31 35.238258 -120.645789 269 215ft 0kts
11-Feb-19 08:32 35.238258 -120.645789 269 215ft 0kts
11-Feb-19 08:33 35.238258 -120.645789 269 215ft 0kts
11-Feb-19 08:34 35.238258 -120.645789 269 215ft 0kts
11-Feb-19 08:35 35.238258 -120.645789 269 215ft 0kts
11-Feb-19 08:36 35.238258 -120.645789 269 215ft 0kts
11-Feb-19 08:37 35.238258 -120.645789 269 215ft 0kts
11-Feb-19 08:38 35.238258 -120.645789 269 215ft 0kts
11-Feb-19 08:39 35.238258 -120.645789 269 215ft 0kts
11-Feb-19 08:40 35.238258 -120.645789 269 215ft 0kts
11-Feb-19 08:41 35.238258 -120.645789 269 215ft 0kts
11-Feb-19 08:42 35.238258 -120.645789 269 215ft 0kts
11-Feb-19 08:43 35.238258 -120.645789 269 215ft 0kts
11-Feb-19 08:44 35.238258 -120.645789 269 215ft 0kts
11-Feb-19 08:45 35.238258 -120.645789 269 215ft 0kts
11-Feb-19 08:46 35.238258 -120.645789 269 215ft 0kts
11-Feb-19 08:47 35.238259 -120.645807 277 215ft 0kts
11-Feb-19 08:48 35.237734 -120.643025 58 215ft 0kts
11-Feb-19 08:49 35.237782 -120.640858 88 215ft 17kts
11-Feb-19 08:50 35.235123 -120.635251 124 215ft 25kts
11-Feb-19 08:51 35.233285 -120.632616 211 215ft 0kts
11-Feb-19 08:53 35.233282 -120.632618 211 215ft 0kts
11-Feb-19 08:54 35.233280 -120.632619 211 215ft 0kts
11-Feb-19 08:55 35.233275 -120.632623 211 215ft 1kts
11-Feb-19 08:56 35.241675 -120.647976 306 627ft 99kts
11-Feb-19 08:57 35.242785 -120.676329 208 1164ft 108kts
11-Feb-19 08:58 35.222122 -120.653885 152 1374ft 103kts
11-Feb-19 08:59 35.191507 -120.649248 176 2139ft 124kts
11-Feb-19 09:00 35.156797 -120.644565 174 3323ft 128kts
11-Feb-19 09:01 35.126862 -120.631931 145 3412ft 118kts
11-Feb-19 09:02 35.097547 -120.618988 165 3480ft 112kts
11-Feb-19 09:03 35.067173 -120.609864 164 3481ft 112kts
11-Feb-19 09:04 35.036862 -120.600577 164 3510ft 114kts
11-Feb-19 09:05 35.005915 -120.585456 151 3501ft 120kts
11-Feb-19 09:06 34.976508 -120.568214 155 3503ft 121kts
11-Feb-19 09:07 34.943850 -120.551790 158 3294ft 127kts
11-Feb-19 09:08 34.910339 -120.535936 158 2063ft 124kts
11-Feb-19 09:08 34.884693 -120.523245 155 1328ft 109kts
11-Feb-19 09:10 34.883661 -120.489944 88 1302ft 97kts
11-Feb-19 09:11 34.871084 -120.461136 114 1257ft 92kts
11-Feb-19 09:12 34.855294 -120.433481 133 1267ft 106kts
11-Feb-19 09:13 34.861659 -120.410686 338 1110ft 85kts
11-Feb-19 09:13 34.875788 -120.425643 315 886ft 80kts
11-Feb-19 09:15 34.892593 -120.445635 315 280ft 61kts
11-Feb-19 09:16 34.897485 -120.450344 3 264ft 0kts
11-Feb-19 09:16 34.897856 -120.450308 1 264ft 10kts
11-Feb-19 09:17 34.896703 -120.447877 55 264ft 7kts
11-Feb-19 09:18 34.896588 -120.445980 133 264ft 0kts
11-Feb-19 09:19 34.896588 -120.445979 133 264ft 0kts
11-Feb-19 09:20 34.896588 -120.445979 133 264ft 0kts
11-Feb-19 09:21 34.896588 -120.445979 133 264ft 0kts
11-Feb-19 09:22 34.896588 -120.445979 133 264ft 0kts
11-Feb-19 09:23 34.896588 -120.445979 133 264ft 0kts
11-Feb-19 09:24 34.896588 -120.445979 133 264ft 0kts
11-Feb-19 09:29 34.896588 -120.445979 133 264ft 0kts

Navigation Log

Ident Type
Flight plan parsing failed, navigation log unavailable